Time;durP1;ratioP1;P1;durP2;ratioP2;P2;SDS_P1;SDS_P2;PMS_P1;PMS_P2;Temp;Humidity;BMP_temperature;BMP_pressure;BME280_temperature;BME280_humidity;BME280_pressure;Samples;Min_cycle;Max_cycle;Signal;HPM_P1;HPM_P2
2021/01/16 00:01:11;;;;;;;22.93;11.77;;;-6.90;99.90;;;;;;5013090;28;20213;-71
2021/01/16 00:03:38;;;;;;;28.43;12.73;;;-6.90;99.90;;;;;;5015365;28;20307;-70
2021/01/16 00:06:05;;;;;;;24.67;12.17;;;-6.90;99.90;;;;;;5018320;28;20239;-69
2021/01/16 00:08:32;;;;;;;28.20;12.70;;;-6.80;99.90;;;;;;5018271;28;20233;-69
2021/01/16 00:11:00;;;;;;;30.83;12.33;;;-6.80;99.90;;;;;;5012436;28;20563;-70
2021/01/16 00:13:28;;;;;;;29.77;13.17;;;-6.90;99.90;;;;;;5010827;28;20207;-70
2021/01/16 00:15:55;;;;;;;29.57;13.10;;;-6.90;99.90;;;;;;5017421;28;20223;-70
2021/01/16 00:18:24;;;;;;;33.63;13.23;;;-6.90;99.90;;;;;;5008018;28;20213;-69
2021/01/16 00:20:52;;;;;;;30.53;13.43;;;-6.90;99.90;;;;;;5014674;28;20298;-70
2021/01/16 00:23:21;;;;;;;29.27;13.43;;;-6.90;99.90;;;;;;5012989;28;20253;-69
2021/01/16 00:25:49;;;;;;;30.87;13.67;;;-7.00;99.90;;;;;;5012796;28;20283;-69
2021/01/16 00:28:18;;;;;;;30.67;13.63;;;-7.00;99.90;;;;;;5018854;28;20211;-69
2021/01/16 00:30:44;;;;;;;30.83;14.00;;;-7.10;99.90;;;;;;5013567;28;20203;-69
2021/01/16 00:33:19;;;;;;;26.13;14.07;;;-7.10;99.90;;;;;;5016194;28;20204;-68
2021/01/16 00:35:47;;;;;;;27.93;13.33;;;-7.00;99.90;;;;;;5008806;28;20257;-70
2021/01/16 00:38:14;;;;;;;28.00;13.20;;;-7.00;99.90;;;;;;5016922;28;20211;-69
2021/01/16 00:40:40;;;;;;;31.73;14.00;;;-7.00;99.90;;;;;;5011412;28;20196;-69
2021/01/16 00:43:09;;;;;;;35.10;14.13;;;-7.00;99.90;;;;;;5015593;28;20215;-69
2021/01/16 00:45:36;;;;;;;25.60;11.57;;;-7.00;99.90;;;;;;5013070;28;20238;-69
2021/01/16 00:48:11;;;;;;;28.37;12.60;;;-7.10;99.90;;;;;;5017817;28;20206;-69
2021/01/16 00:50:37;;;;;;;30.33;13.17;;;-7.10;99.90;;;;;;5015624;28;20212;-69
2021/01/16 00:53:04;;;;;;;30.43;13.13;;;-7.30;99.90;;;;;;5012841;28;20211;-69
2021/01/16 00:55:31;;;;;;;34.93;13.70;;;-7.40;99.90;;;;;;5011164;28;20226;-70
2021/01/16 00:57:58;;;;;;;30.20;14.57;;;-7.40;99.90;;;;;;5014128;28;20334;-70
2021/01/16 01:00:26;;;;;;;31.30;14.27;;;-7.60;99.90;;;;;;5014630;28;20295;-69
2021/01/16 01:02:53;;;;;;;34.70;14.23;;;-7.60;99.90;;;;;;5018819;28;20212;-71
2021/01/16 01:05:22;;;;;;;32.97;15.00;;;-7.70;99.90;;;;;;5014974;28;20339;-69
2021/01/16 01:07:49;;;;;;;34.73;15.00;;;-7.80;99.90;;;;;;5018311;28;20211;-69
2021/01/16 01:10:18;;;;;;;40.03;15.80;;;-7.70;99.90;;;;;;5018499;28;20355;-69
2021/01/16 01:12:45;;;;;;;32.33;14.03;;;-7.60;99.90;;;;;;5017637;28;20594;-70
2021/01/16 01:15:11;;;;;;;31.17;14.90;;;-7.60;99.90;;;;;;5013113;28;20618;-69
2021/01/16 01:17:38;;;;;;;39.10;16.77;;;-7.60;99.90;;;;;;5009610;28;20247;-70
2021/01/16 01:20:07;;;;;;;33.13;15.10;;;-7.60;99.90;;;;;;5018071;28;20618;-69
2021/01/16 01:22:37;;;;;;;36.20;16.40;;;-7.60;99.90;;;;;;5017461;28;20223;-71
2021/01/16 01:25:05;;;;;;;29.67;14.90;;;-7.60;99.90;;;;;;5010726;28;20599;-69
2021/01/16 01:27:32;;;;;;;33.93;14.97;;;-7.60;99.90;;;;;;5012658;28;20232;-69
2021/01/16 01:29:59;;;;;;;31.17;15.60;;;-7.60;99.90;;;;;;5009638;28;20203;-70
2021/01/16 01:32:26;;;;;;;32.57;14.97;;;-7.60;99.90;;;;;;5023721;28;20218;-69
2021/01/16 01:34:52;;;;;;;37.93;16.93;;;-7.50;99.90;;;;;;5019330;28;20204;-70
2021/01/16 01:37:19;;;;;;;30.23;13.80;;;-7.50;99.90;;;;;;5010781;28;20226;-69
2021/01/16 01:39:45;;;;;;;33.40;16.10;;;-7.50;99.90;;;;;;5012629;28;20199;-70
2021/01/16 01:42:15;;;;;;;33.10;15.40;;;-7.50;99.90;;;;;;5012882;28;20211;-69
2021/01/16 01:44:42;;;;;;;29.53;14.67;;;-7.40;99.90;;;;;;5007411;28;20218;-70
2021/01/16 01:47:10;;;;;;;35.67;14.63;;;-7.40;99.90;;;;;;5010535;28;20791;-69
2021/01/16 01:49:36;;;;;;;34.87;14.90;;;-7.40;99.90;;;;;;5015453;28;20210;-69
2021/01/16 01:52:03;;;;;;;43.30;17.63;;;-7.40;99.90;;;;;;5009777;28;20238;-69
2021/01/16 01:54:30;;;;;;;37.53;15.23;;;-7.30;99.90;;;;;;5006714;28;20204;-70
2021/01/16 01:57:00;;;;;;;36.67;15.87;;;-7.30;99.90;;;;;;5015659;28;20211;-70
2021/01/16 01:59:32;;;;;;;35.10;14.87;;;-7.30;99.90;;;;;;5011561;28;20226;-69
2021/01/16 02:02:00;;;;;;;33.93;14.33;;;-7.30;99.90;;;;;;5004407;28;20210;-72
2021/01/16 02:04:30;;;;;;;30.77;15.47;;;-7.30;99.90;;;;;;5017981;28;20257;-71
2021/01/16 02:06:56;;;;;;;30.67;14.63;;;-7.30;99.90;;;;;;5016431;28;20238;-72
2021/01/16 02:09:23;;;;;;;28.63;14.27;;;-7.30;99.90;;;;;;5012063;28;20211;-72
2021/01/16 02:11:51;;;;;;;36.03;13.70;;;-7.30;99.90;;;;;;5017294;28;20231;-72
2021/01/16 02:14:23;;;;;;;36.97;16.17;;;-7.30;99.90;;;;;;5012455;28;20203;-72
2021/01/16 02:16:51;;;;;;;36.13;14.77;;;-7.40;99.90;;;;;;5011963;28;20204;-72
2021/01/16 02:19:31;;;;;;;32.20;14.97;;;-7.30;99.90;;;;;;5009941;28;20214;-71
2021/01/16 02:21:58;;;;;;;33.33;13.97;;;-7.30;99.90;;;;;;5006909;28;20704;-72
2021/01/16 02:24:31;;;;;;;31.17;14.63;;;-7.30;99.90;;;;;;5017657;28;20278;-72
2021/01/16 02:27:13;;;;;;;37.87;15.03;;;-7.30;99.90;;;;;;5013164;28;20219;-72
2021/01/16 02:29:40;;;;;;;32.40;14.37;;;-7.20;99.90;;;;;;5007127;28;20203;-71
2021/01/16 02:32:08;;;;;;;36.20;14.83;;;-7.20;99.90;;;;;;5008141;28;20207;-72
2021/01/16 02:34:37;;;;;;;30.20;14.40;;;-7.10;99.90;;;;;;5017096;28;20207;-72
2021/01/16 02:37:37;;;;;;;29.13;14.00;;;-7.00;99.90;;;;;;5010200;28;20717;-72
2021/01/16 02:40:14;;;;;;;31.93;14.30;;;-6.30;99.90;;;;;;5013991;28;20228;-72
2021/01/16 02:42:53;;;;;;;27.27;13.40;;;-6.80;99.90;;;;;;5010619;28;20570;-72
2021/01/16 02:45:25;;;;;;;31.10;13.87;;;-6.70;99.90;;;;;;5012021;28;20289;-72
2021/01/16 02:48:01;;;;;;;26.13;13.23;;;-6.70;99.90;;;;;;5007213;28;20204;-71
2021/01/16 02:50:28;;;;;;;34.30;13.83;;;-6.60;99.90;;;;;;5010630;28;20982;-72
2021/01/16 02:52:58;;;;;;;29.77;13.47;;;-6.60;99.90;;;;;;5012314;28;20266;-73
2021/01/16 02:55:25;;;;;;;29.77;14.00;;;-6.70;99.90;;;;;;5011370;28;20205;-72
2021/01/16 02:57:52;;;;;;;32.20;14.80;;;-6.70;99.90;;;;;;5014404;28;20203;-71
2021/01/16 03:00:21;;;;;;;34.43;12.53;;;-6.70;99.90;;;;;;5009222;28;20211;-72
2021/01/16 03:02:48;;;;;;;28.03;13.90;;;-6.70;99.90;;;;;;5010720;28;20207;-73
2021/01/16 03:05:17;;;;;;;30.63;14.17;;;-6.70;99.90;;;;;;5008089;28;20243;-72
2021/01/16 03:07:44;;;;;;;36.67;12.40;;;-6.70;99.90;;;;;;5008043;28;20247;-72
2021/01/16 03:10:12;;;;;;;23.80;12.47;;;-6.70;99.90;;;;;;5011920;28;20653;-72
2021/01/16 03:12:38;;;;;;;27.37;13.70;;;-6.70;99.90;;;;;;5016833;28;20230;-72
2021/01/16 03:15:08;;;;;;;26.43;12.70;;;-6.60;99.90;;;;;;5014705;28;20211;-73
2021/01/16 03:17:48;;;;;;;28.80;12.47;;;-6.60;99.90;;;;;;5011291;28;20660;-72
2021/01/16 03:20:19;;;;;;;28.00;12.83;;;-6.40;99.90;;;;;;5010157;28;20198;-73
2021/01/16 03:22:49;;;;;;;24.33;13.07;;;-6.40;99.90;;;;;;5019620;28;20195;-73
2021/01/16 03:25:19;;;;;;;25.53;12.00;;;-6.30;99.90;;;;;;5014311;28;20277;-73
2021/01/16 03:27:46;;;;;;;24.63;12.33;;;-6.30;99.90;;;;;;5013917;28;20219;-73
2021/01/16 03:30:14;;;;;;;24.67;10.70;;;-6.30;99.90;;;;;;5017865;28;20298;-72
2021/01/16 03:32:41;;;;;;;23.87;11.17;;;-6.30;99.90;;;;;;5016224;28;20645;-73
2021/01/16 03:35:08;;;;;;;24.93;11.60;;;-6.40;99.90;;;;;;5019237;28;20214;-73
2021/01/16 03:37:35;;;;;;;24.63;12.50;;;-6.40;99.90;;;;;;5015671;28;20207;-72
2021/01/16 03:40:02;;;;;;;21.60;10.43;;;-6.30;99.90;;;;;;5019559;28;20204;-72
2021/01/16 03:42:28;;;;;;;26.70;12.63;;;-6.30;99.90;;;;;;5010211;28;20212;-72
2021/01/16 03:44:54;;;;;;;24.53;10.67;;;-6.30;99.90;;;;;;5018138;28;20306;-71
2021/01/16 03:47:22;;;;;;;25.07;11.87;;;-6.30;99.90;;;;;;5016232;28;20667;-71
2021/01/16 03:49:48;;;;;;;25.80;12.30;;;-6.30;99.90;;;;;;5011722;28;21115;-71
2021/01/16 03:52:31;;;;;;;21.93;11.53;;;-6.30;99.90;;;;;;5015646;28;20700;-72
2021/01/16 03:54:58;;;;;;;28.87;12.70;;;-6.30;99.90;;;;;;5012862;28;20214;-72
2021/01/16 03:57:25;;;;;;;26.93;11.70;;;-6.20;99.90;;;;;;5018104;28;20230;-72
2021/01/16 03:59:52;;;;;;;24.73;11.83;;;-6.20;99.90;;;;;;5013164;28;20715;-72
2021/01/16 04:02:18;;;;;;;27.13;12.97;;;-6.10;99.90;;;;;;5019015;28;20624;-71
2021/01/16 04:04:46;;;;;;;23.30;11.97;;;-6.10;99.90;;;;;;5014330;28;20211;-71
2021/01/16 04:07:13;;;;;;;27.73;12.43;;;-6.10;99.90;;;;;;5020433;28;20644;-73
2021/01/16 04:09:39;;;;;;;29.63;12.50;;;-6.00;99.90;;;;;;5015604;28;20241;-72
2021/01/16 04:12:06;;;;;;;26.13;12.73;;;-5.90;99.90;;;;;;5016327;28;20325;-72
2021/01/16 04:14:33;;;;;;;24.63;11.30;;;-5.90;99.90;;;;;;5014886;28;20208;-72
2021/01/16 04:16:59;;;;;;;24.07;12.87;;;-6.00;99.90;;;;;;5014419;28;20211;-72
2021/01/16 04:19:25;;;;;;;23.57;11.97;;;-6.00;99.90;;;;;;5020962;28;20218;-72
2021/01/16 04:21:52;;;;;;;22.77;10.83;;;-6.00;99.90;;;;;;5021161;28;20303;-71
2021/01/16 04:24:19;;;;;;;25.77;11.43;;;-6.10;99.90;;;;;;5021629;28;20274;-73
2021/01/16 04:26:47;;;;;;;23.17;10.60;;;-6.10;99.90;;;;;;5021994;28;20779;-71
2021/01/16 04:29:13;;;;;;;23.13;11.67;;;-6.00;99.90;;;;;;5012660;28;20208;-71
2021/01/16 04:31:39;;;;;;;27.33;11.20;;;-6.00;99.90;;;;;;5018578;28;20214;-71
2021/01/16 04:34:06;;;;;;;22.93;11.13;;;-6.00;99.90;;;;;;5024093;28;20216;-72
2021/01/16 04:36:32;;;;;;;32.03;11.93;;;-6.00;99.90;;;;;;5020825;28;20293;-73
2021/01/16 04:38:59;;;;;;;26.10;11.57;;;-6.00;99.90;;;;;;5022773;28;20231;-72
2021/01/16 04:41:27;;;;;;;23.90;11.63;;;-5.90;99.90;;;;;;5021190;28;20728;-72
2021/01/16 04:43:54;;;;;;;25.27;12.10;;;-6.00;99.90;;;;;;5012685;28;20203;-72
2021/01/16 04:46:21;;;;;;;27.83;13.67;;;-6.00;99.90;;;;;;5010979;28;20223;-72
2021/01/16 04:48:58;;;;;;;30.10;12.83;;;-6.00;99.90;;;;;;5010535;28;20203;-72
2021/01/16 04:51:25;;;;;;;29.00;13.53;;;-6.10;99.90;;;;;;5014517;28;20207;-71
2021/01/16 04:53:57;;;;;;;31.13;13.17;;;-6.10;99.90;;;;;;5017665;28;20203;-72
2021/01/16 04:56:27;;;;;;;32.87;13.83;;;-6.20;99.90;;;;;;5014040;28;20664;-72
2021/01/16 04:58:53;;;;;;;25.70;13.07;;;-6.20;99.90;;;;;;5017368;28;20299;-73
2021/01/16 05:01:21;;;;;;;27.70;13.60;;;-6.20;99.90;;;;;;5016134;28;20217;-72
2021/01/16 05:03:51;;;;;;;27.43;13.00;;;-6.20;99.90;;;;;;5015456;28;20212;-72
2021/01/16 05:06:19;;;;;;;28.83;13.90;;;-6.20;99.90;;;;;;5021386;28;20600;-73
2021/01/16 05:08:46;;;;;;;23.50;13.23;;;-6.20;99.90;;;;;;5016535;28;20209;-72
2021/01/16 05:11:24;;;;;;;25.03;12.60;;;-6.30;99.90;;;;;;5015096;28;20227;-72
2021/01/16 05:14:09;;;;;;;23.13;12.03;;;-6.30;99.90;;;;;;5017322;28;20649;-72
2021/01/16 05:16:53;;;;;;;23.47;11.73;;;-6.30;99.90;;;;;;5013663;28;20196;-72
2021/01/16 05:19:22;;;;;;;16.13;9.27;;;-6.30;99.90;;;;;;5015945;28;20644;-72
2021/01/16 05:21:48;;;;;;;20.33;9.83;;;-6.30;99.90;;;;;;5013234;28;20840;-72
2021/01/16 05:24:16;;;;;;;20.30;10.23;;;-6.40;99.90;;;;;;5013294;28;20586;-73
2021/01/16 05:26:56;;;;;;;19.70;9.30;;;-6.50;99.90;;;;;;5012890;28;20231;-72
2021/01/16 05:29:25;;;;;;;17.10;8.80;;;-6.50;99.90;;;;;;5013561;28;20211;-72
2021/01/16 05:31:53;;;;;;;16.97;9.23;;;-6.60;99.90;;;;;;5008713;28;20210;-72
2021/01/16 05:34:20;;;;;;;17.47;9.13;;;-6.60;99.90;;;;;;5016345;28;20221;-73
2021/01/16 05:36:47;;;;;;;16.20;8.60;;;-6.60;99.90;;;;;;5016414;28;20214;-72
2021/01/16 05:39:15;;;;;;;19.67;8.83;;;-6.60;99.90;;;;;;5015492;28;20680;-72
2021/01/16 05:41:43;;;;;;;18.27;8.53;;;-6.60;99.90;;;;;;5009331;28;20204;-72
2021/01/16 05:44:09;;;;;;;22.10;8.73;;;-6.60;99.90;;;;;;5019504;28;20208;-72
2021/01/16 05:46:42;;;;;;;16.20;9.23;;;-6.60;99.90;;;;;;5014406;28;20215;-73
2021/01/16 05:49:08;;;;;;;17.63;8.70;;;-6.60;99.90;;;;;;5015187;28;20282;-73
2021/01/16 05:51:35;;;;;;;16.83;9.03;;;-6.50;99.90;;;;;;5007276;28;20219;-73
2021/01/16 05:54:02;;;;;;;19.47;8.60;;;-6.50;99.90;;;;;;5013442;28;20614;-72
2021/01/16 05:56:32;;;;;;;21.63;8.97;;;-6.50;99.90;;;;;;5015580;28;20215;-74
2021/01/16 05:58:59;;;;;;;18.20;9.00;;;-6.50;99.90;;;;;;5013122;28;20243;-72
2021/01/16 06:01:26;;;;;;;15.47;8.63;;;-6.50;99.90;;;;;;5007871;28;20242;-72
2021/01/16 06:03:55;;;;;;;16.40;8.23;;;-6.50;99.90;;;;;;5010414;28;20667;-72
2021/01/16 06:06:23;;;;;;;18.67;9.30;;;-6.50;99.90;;;;;;5005771;28;20242;-73
2021/01/16 06:08:50;;;;;;;15.70;8.07;;;-6.50;99.90;;;;;;5015808;28;20210;-72
2021/01/16 06:11:17;;;;;;;20.33;9.63;;;-6.50;99.90;;;;;;5016060;28;20314;-72
2021/01/16 06:13:44;;;;;;;19.47;9.40;;;-6.60;99.90;;;;;;5019417;28;20207;-72
2021/01/16 06:16:15;;;;;;;16.27;7.97;;;-6.50;99.90;;;;;;5013297;28;20689;-73
2021/01/16 06:18:47;;;;;;;15.50;8.80;;;-6.40;99.90;;;;;;5015911;28;20283;-72
2021/01/16 06:21:22;;;;;;;17.77;8.23;;;-6.40;99.90;;;;;;5011892;28;20258;-72
2021/01/16 06:23:53;;;;;;;19.10;8.57;;;-6.40;99.90;;;;;;5010322;28;20257;-72
2021/01/16 06:26:21;;;;;;;18.20;8.23;;;-6.30;99.90;;;;;;5008861;28;20273;-73
2021/01/16 06:28:56;;;;;;;18.13;8.87;;;-6.30;99.90;;;;;;5010645;28;20262;-72
2021/01/16 06:31:25;;;;;;;17.33;8.73;;;-6.30;99.90;;;;;;5008418;28;20635;-72
2021/01/16 06:33:57;;;;;;;17.00;8.37;;;-6.30;99.90;;;;;;5017824;28;20291;-71
2021/01/16 06:36:28;;;;;;;17.07;8.00;;;-6.30;99.90;;;;;;5013207;28;20660;-73
2021/01/16 06:38:57;;;;;;;19.50;8.73;;;-6.20;99.90;;;;;;5008322;28;20208;-72
2021/01/16 06:41:28;;;;;;;19.27;9.73;;;-6.20;99.90;;;;;;5009498;28;20266;-73
2021/01/16 06:43:55;;;;;;;16.33;8.43;;;-6.10;99.90;;;;;;5016182;28;20249;-71
2021/01/16 06:46:42;;;;;;;17.40;9.27;;;-6.10;99.90;;;;;;5007093;28;20234;-72
2021/01/16 06:49:17;;;;;;;16.83;8.60;;;-6.00;99.90;;;;;;5009331;28;20207;-72
2021/01/16 06:51:44;;;;;;;17.20;7.60;;;-5.90;99.90;;;;;;5010692;28;20203;-71
2021/01/16 06:54:11;;;;;;;16.67;8.97;;;-5.90;99.90;;;;;;5011377;28;20634;-72
2021/01/16 06:56:39;;;;;;;15.87;7.30;;;-5.80;99.90;;;;;;5010769;28;20199;-72
2021/01/16 06:59:13;;;;;;;15.80;8.67;;;-5.80;99.90;;;;;;5012097;28;20211;-71
2021/01/16 07:01:41;;;;;;;15.13;7.70;;;-5.90;99.90;;;;;;5006664;28;20203;-73
2021/01/16 07:04:12;;;;;;;18.80;8.40;;;-5.90;99.90;;;;;;5011835;28;20242;-72
2021/01/16 07:06:47;;;;;;;17.00;7.63;;;-5.90;99.90;;;;;;5008298;28;20235;-72
2021/01/16 07:09:16;;;;;;;18.77;7.80;;;-6.00;99.90;;;;;;5008737;28;20210;-72
2021/01/16 07:11:43;;;;;;;18.87;8.83;;;-5.90;99.90;;;;;;5009991;28;20314;-72
2021/01/16 07:14:11;;;;;;;16.97;9.30;;;-5.90;99.90;;;;;;5008652;28;20931;-72
2021/01/16 07:16:38;;;;;;;17.83;9.13;;;-5.90;99.90;;;;;;5013594;28;20203;-72
2021/01/16 07:19:06;;;;;;;17.27;9.00;;;-5.80;99.90;;;;;;5010610;28;20637;-71
2021/01/16 07:21:39;;;;;;;18.07;9.80;;;-5.70;99.90;;;;;;5005719;28;20218;-72
2021/01/16 07:24:09;;;;;;;18.40;8.87;;;-5.60;99.90;;;;;;5008207;28;20215;-73
2021/01/16 07:26:36;;;;;;;25.60;9.47;;;-5.60;99.90;;;;;;5006250;28;20272;-71
2021/01/16 07:29:06;;;;;;;20.37;10.13;;;-5.60;99.90;;;;;;5011974;28;20207;-72
2021/01/16 07:31:36;;;;;;;17.50;9.10;;;-5.60;99.90;;;;;;5006848;28;20211;-72
2021/01/16 07:34:03;;;;;;;21.37;10.60;;;-5.50;99.90;;;;;;5008253;28;20204;-71
2021/01/16 07:36:30;;;;;;;26.00;10.47;;;-5.50;99.90;;;;;;4994000;28;20207;-72
2021/01/16 07:39:00;;;;;;;20.17;9.83;;;-5.40;99.90;;;;;;5006559;28;20543;-73
2021/01/16 07:41:31;;;;;;;23.43;10.23;;;-5.50;99.90;;;;;;5008235;28;20200;-72
2021/01/16 07:44:05;;;;;;;21.90;9.57;;;-5.40;99.90;;;;;;5012483;28;20263;-72
2021/01/16 07:46:32;;;;;;;18.13;9.50;;;-5.40;99.90;;;;;;5005805;28;20283;-73
2021/01/16 07:49:01;;;;;;;19.83;10.20;;;-5.30;99.90;;;;;;5008878;28;20210;-72
2021/01/16 07:51:32;;;;;;;17.30;9.23;;;-5.20;99.90;;;;;;5012884;28;20203;-73
2021/01/16 07:54:04;;;;;;;16.93;8.90;;;-5.10;99.90;;;;;;5008280;28;20303;-73
2021/01/16 07:56:58;;;;;;;19.60;9.33;;;-5.00;99.90;;;;;;4999726;28;20222;-73
2021/01/16 07:59:32;;;;;;;18.63;9.67;;;-4.90;99.90;;;;;;5004681;28;20698;-72
2021/01/16 08:02:30;;;;;;;19.50;10.27;;;-4.70;99.90;;;;;;5002306;28;20218;-71
2021/01/16 08:05:14;;;;;;;19.47;9.50;;;-4.60;99.90;;;;;;5003843;28;20227;-72
2021/01/16 08:08:20;;;;;;;18.70;9.77;;;-4.60;99.90;;;;;;5006553;28;20707;-72
2021/01/16 08:10:53;;;;;;;18.27;9.17;;;-4.50;99.90;;;;;;5000774;28;20211;-72
2021/01/16 08:13:23;;;;;;;24.70;10.67;;;-4.40;99.90;;;;;;5000592;28;20276;-72
2021/01/16 08:15:50;;;;;;;22.20;11.17;;;-4.40;99.90;;;;;;5018892;28;20286;-73
2021/01/16 08:18:20;;;;;;;23.67;10.60;;;-4.30;99.90;;;;;;5021402;28;20203;-71
2021/01/16 08:20:48;;;;;;;27.80;12.00;;;-4.30;99.90;;;;;;5015546;28;20209;-73
2021/01/16 08:23:23;;;;;;;21.60;10.20;;;-4.20;99.90;;;;;;5015375;28;20334;-72
2021/01/16 08:25:49;;;;;;;21.10;10.17;;;-4.10;99.90;;;;;;5014603;28;20209;-73
2021/01/16 08:28:25;;;;;;;28.20;11.53;;;-4.10;99.90;;;;;;5020315;28;20230;-72
2021/01/16 08:30:51;;;;;;;24.33;10.93;;;-4.00;99.90;;;;;;5015697;28;20207;-73
2021/01/16 08:33:18;;;;;;;22.03;11.47;;;-4.00;99.90;;;;;;5020641;28;20203;-72
2021/01/16 08:35:48;;;;;;;21.00;11.33;;;-3.80;99.90;;;;;;5015292;28;20302;-71
2021/01/16 08:38:25;;;;;;;21.73;10.90;;;-3.80;99.90;;;;;;5014157;28;20210;-72
2021/01/16 08:40:55;;;;;;;22.63;11.53;;;-3.80;99.90;;;;;;5016039;28;20204;-71
2021/01/16 08:43:37;;;;;;;26.13;12.17;;;-3.70;99.90;;;;;;5015616;28;20226;-72
2021/01/16 08:46:11;;;;;;;21.60;11.33;;;-3.60;99.90;;;;;;5010679;28;20207;-71
2021/01/16 08:48:38;;;;;;;24.17;11.33;;;-3.50;99.90;;;;;;5013205;28;20356;-72
2021/01/16 08:51:30;;;;;;;29.57;12.20;;;-3.40;99.90;;;;;;5011469;28;20434;-71
2021/01/16 08:54:11;;;;;;;22.43;11.47;;;-3.40;99.90;;;;;;5011541;28;20302;-72
2021/01/16 08:56:37;;;;;;;23.30;12.23;;;-3.40;99.90;;;;;;5010766;28;20579;-72
2021/01/16 08:59:16;;;;;;;21.40;10.87;;;-3.30;99.90;;;;;;5014746;28;20255;-72
2021/01/16 09:01:43;;;;;;;23.60;11.70;;;-3.30;99.90;;;;;;5011231;28;22257;-72
2021/01/16 09:04:24;;;;;;;27.70;12.83;;;-3.40;99.90;;;;;;5011898;28;20341;-73
2021/01/16 09:06:52;;;;;;;25.93;11.77;;;-3.30;99.90;;;;;;5010914;28;20346;-73
2021/01/16 09:09:26;;;;;;;25.37;11.90;;;-3.30;99.90;;;;;;5011338;28;20303;-73
2021/01/16 09:12:07;;;;;;;21.93;11.17;;;-3.20;99.90;;;;;;5009254;28;20227;-72
2021/01/16 09:14:35;;;;;;;23.53;12.80;;;-3.20;99.90;;;;;;5011098;28;20196;-72
2021/01/16 09:17:22;;;;;;;22.03;11.20;;;-3.20;99.90;;;;;;5012804;28;20215;-71
2021/01/16 09:19:56;;;;;;;25.37;13.17;;;-3.20;99.90;;;;;;5006893;28;21556;-75
2021/01/16 09:22:24;;;;;;;24.43;12.63;;;-3.20;99.90;;;;;;5001912;28;20218;-73
2021/01/16 09:24:51;;;;;;;23.53;12.37;;;-3.20;99.90;;;;;;5002233;28;20254;-73
2021/01/16 09:27:26;;;;;;;26.60;12.60;;;-3.20;99.90;;;;;;5002380;28;20228;-73
2021/01/16 09:29:54;;;;;;;24.20;12.10;;;-3.20;99.90;;;;;;5012761;28;20199;-74
2021/01/16 09:32:31;;;;;;;26.40;13.37;;;-3.20;99.90;;;;;;5014739;28;20687;-73
2021/01/16 09:34:59;;;;;;;20.67;11.67;;;-3.20;99.90;;;;;;5017957;28;20271;-73
2021/01/16 09:37:26;;;;;;;22.67;11.93;;;-3.30;99.90;;;;;;5010241;28;20711;-71
2021/01/16 09:40:05;;;;;;;21.13;11.43;;;-3.20;99.90;;;;;;5012706;28;20207;-73
2021/01/16 09:42:31;;;;;;;20.37;11.83;;;-3.20;99.90;;;;;;5013928;28;20248;-72
2021/01/16 09:44:59;;;;;;;22.03;10.80;;;-3.10;99.90;;;;;;5014368;28;20260;-74
2021/01/16 09:47:50;;;;;;;22.37;11.77;;;-2.90;99.90;;;;;;5009718;28;20266;-72
2021/01/16 09:50:19;;;;;;;14.83;8.27;;;-2.80;99.90;;;;;;5011055;28;20231;-72
2021/01/16 09:52:47;;;;;;;16.67;8.83;;;-2.70;99.90;;;;;;5016385;28;20211;-73
2021/01/16 09:55:23;;;;;;;19.27;8.97;;;-2.70;99.90;;;;;;5005631;28;20294;-72
2021/01/16 09:57:49;;;;;;;20.93;10.03;;;-2.70;99.90;;;;;;5012113;28;20703;-72
2021/01/16 10:00:25;;;;;;;17.07;9.40;;;-2.60;99.90;;;;;;5008410;28;20261;-71
2021/01/16 10:02:58;;;;;;;18.27;8.73;;;-2.60;99.90;;;;;;5012306;28;20194;-71
2021/01/16 10:05:29;;;;;;;17.27;8.73;;;-2.60;99.90;;;;;;5018787;28;20718;-72
2021/01/16 10:07:56;;;;;;;16.23;9.27;;;-2.60;99.90;;;;;;5008011;28;20219;-72
2021/01/16 10:10:22;;;;;;;16.27;9.17;;;-2.60;99.90;;;;;;5012446;28;20207;-71
2021/01/16 10:12:49;;;;;;;19.53;10.50;;;-2.60;99.90;;;;;;5015405;28;20317;-71
2021/01/16 10:15:18;;;;;;;18.03;9.20;;;-2.50;99.90;;;;;;5015051;28;20213;-70
2021/01/16 10:17:46;;;;;;;20.87;10.37;;;-2.50;99.90;;;;;;5012405;28;20200;-70
2021/01/16 10:20:16;;;;;;;21.97;11.17;;;-2.40;99.90;;;;;;5013165;28;20279;-69
2021/01/16 10:22:47;;;;;;;21.43;11.33;;;-2.40;99.90;;;;;;5012667;28;20234;-71
2021/01/16 10:25:15;;;;;;;22.40;11.67;;;-2.40;99.90;;;;;;5009428;28;20563;-72
2021/01/16 10:27:47;;;;;;;21.77;11.80;;;-2.30;99.90;;;;;;5010243;28;20227;-72
2021/01/16 10:30:19;;;;;;;26.63;12.70;;;-2.30;99.90;;;;;;5008644;28;20311;-71
2021/01/16 10:32:47;;;;;;;23.23;12.43;;;-2.30;99.90;;;;;;5008222;28;20238;-72
2021/01/16 10:35:22;;;;;;;24.33;12.77;;;-2.20;99.90;;;;;;5012492;28;20572;-72
2021/01/16 10:37:50;;;;;;;22.53;12.13;;;-2.20;99.90;;;;;;5009851;28;20213;-71
2021/01/16 10:40:17;;;;;;;24.20;12.60;;;-2.10;99.90;;;;;;5008345;28;20203;-70
2021/01/16 10:42:46;;;;;;;21.83;11.80;;;-2.20;99.90;;;;;;5008164;28;20210;-73
2021/01/16 10:45:15;;;;;;;20.83;11.00;;;-2.20;99.90;;;;;;5011253;28;20199;-71
2021/01/16 10:47:44;;;;;;;24.57;12.70;;;-2.20;99.90;;;;;;5011854;28;20309;-72
2021/01/16 10:50:15;;;;;;;22.87;12.63;;;-2.30;99.90;;;;;;5004714;28;20215;-72
2021/01/16 10:52:42;;;;;;;21.83;12.93;;;-2.30;99.90;;;;;;5004494;28;20215;-71
2021/01/16 10:55:10;;;;;;;23.30;11.57;;;-2.30;99.90;;;;;;5010992;28;20210;-71
2021/01/16 10:57:43;;;;;;;24.43;12.47;;;-2.30;99.90;;;;;;5013706;28;20664;-73
2021/01/16 11:00:12;;;;;;;22.40;12.60;;;-2.30;99.90;;;;;;5011493;28;20611;-72
2021/01/16 11:02:41;;;;;;;27.60;13.87;;;-2.30;99.90;;;;;;5008330;28;20285;-71
2021/01/16 11:05:35;;;;;;;27.33;14.57;;;-2.30;99.90;;;;;;5004598;28;20247;-71
2021/01/16 11:08:12;;;;;;;27.27;13.93;;;-2.30;99.90;;;;;;5009221;28;20672;-72
2021/01/16 11:10:39;;;;;;;25.40;12.87;;;-2.40;99.90;;;;;;5009855;28;20222;-71
2021/01/16 11:13:22;;;;;;;27.97;14.30;;;-2.40;99.90;;;;;;5008264;28;20574;-71
2021/01/16 11:15:52;;;;;;;23.47;14.03;;;-2.40;99.90;;;;;;5002789;28;20589;-73
2021/01/16 11:18:33;;;;;;;26.77;15.07;;;-2.30;99.90;;;;;;5010472;28;20218;-73
2021/01/16 11:21:03;;;;;;;26.93;14.73;;;-2.20;99.90;;;;;;5009783;28;20234;-71
2021/01/16 11:23:45;;;;;;;24.70;15.10;;;-2.30;99.90;;;;;;5007495;28;20672;-72
2021/01/16 11:26:13;;;;;;;26.90;14.60;;;-2.20;99.90;;;;;;5008510;28;20207;-71
2021/01/16 11:28:57;;;;;;;22.83;13.03;;;-2.20;99.90;;;;;;5014253;28;20692;-71
2021/01/16 11:31:29;;;;;;;22.63;13.80;;;-2.20;99.90;;;;;;5011521;28;20219;-72
2021/01/16 11:34:22;;;;;;;23.73;13.27;;;-2.10;99.90;;;;;;5007585;28;20281;-70
2021/01/16 11:37:04;;;;;;;23.67;13.27;;;-2.10;99.90;;;;;;5003647;28;20204;-72
2021/01/16 11:39:49;;;;;;;26.10;12.97;;;-2.10;99.90;;;;;;5009204;28;20269;-71
2021/01/16 11:42:17;;;;;;;23.63;13.70;;;-2.00;99.90;;;;;;5011977;28;20623;-71
2021/01/16 11:44:51;;;;;;;23.60;12.83;;;-2.00;99.90;;;;;;5011136;28;20203;-72
2021/01/16 11:47:18;;;;;;;27.53;13.33;;;-2.00;99.90;;;;;;5012198;28;20259;-70
2021/01/16 11:49:45;;;;;;;23.87;13.00;;;-1.90;99.90;;;;;;5011067;28;20298;-72
2021/01/16 11:52:12;;;;;;;22.50;11.33;;;-1.90;99.90;;;;;;5013916;28;20241;-72
2021/01/16 11:54:39;;;;;;;21.60;11.70;;;-1.80;99.90;;;;;;5007377;28;20211;-70
2021/01/16 11:57:09;;;;;;;21.13;12.07;;;-1.70;99.90;;;;;;5012752;28;20214;-70
2021/01/16 11:59:36;;;;;;;21.73;13.10;;;-1.70;99.90;;;;;;5020268;28;20559;-71
2021/01/16 12:02:04;;;;;;;19.83;12.50;;;-1.60;99.90;;;;;;5011531;28;20202;-71
2021/01/16 12:04:31;;;;;;;16.63;10.67;;;-1.50;99.90;;;;;;5004160;28;20211;-71
2021/01/16 12:07:00;;;;;;;19.63;10.30;;;-1.40;99.90;;;;;;5006754;28;20227;-72
2021/01/16 12:09:28;;;;;;;18.17;10.60;;;-1.40;99.90;;;;;;5013664;28;20211;-71
2021/01/16 12:11:57;;;;;;;20.17;10.63;;;-1.30;99.90;;;;;;5017582;28;20234;-71
2021/01/16 12:14:34;;;;;;;19.40;9.47;;;-1.20;99.90;;;;;;5014194;28;20208;-72
2021/01/16 12:17:05;;;;;;;20.07;10.00;;;-1.10;99.90;;;;;;5012465;28;20282;-72
2021/01/16 12:19:33;;;;;;;15.60;9.17;;;-1.10;99.90;;;;;;5019591;28;20214;-71
2021/01/16 12:22:02;;;;;;;13.33;8.33;;;-1.00;99.90;;;;;;5012127;28;20207;-71
2021/01/16 12:24:30;;;;;;;15.80;8.27;;;-0.90;99.90;;;;;;5012060;28;20571;-71
2021/01/16 12:26:59;;;;;;;11.70;7.10;;;-0.90;99.90;;;;;;5011359;28;20230;-72
2021/01/16 12:29:40;;;;;;;11.77;8.67;;;-0.90;99.90;;;;;;5014601;28;20207;-72
2021/01/16 12:32:11;;;;;;;12.00;7.00;;;-0.90;99.90;;;;;;5012479;28;20696;-71
2021/01/16 12:34:48;;;;;;;13.30;7.47;;;-0.90;99.90;;;;;;5008250;28;20679;-71
2021/01/16 12:37:24;;;;;;;10.80;6.20;;;-0.90;99.90;;;;;;5009634;28;20213;-71
2021/01/16 12:39:52;;;;;;;9.97;6.93;;;-1.00;99.90;;;;;;5012998;28;20232;-71
2021/01/16 12:42:18;;;;;;;11.80;6.43;;;-0.90;99.90;;;;;;5012939;28;20658;-73
2021/01/16 12:44:45;;;;;;;10.37;5.87;;;-0.90;99.90;;;;;;5016774;28;20203;-71
2021/01/16 12:47:18;;;;;;;11.70;6.13;;;-0.90;99.90;;;;;;5013623;28;20230;-71